createdAt,value
2019-05-05T09:47:30.968Z,58.40
2019-05-05T09:49:58.581Z,58.80
2019-05-05T09:52:26.396Z,58.70
2019-05-05T09:54:54.535Z,58.90
2019-05-05T09:57:23.716Z,58.60
2019-05-05T09:59:54.256Z,59.70
2019-05-05T10:02:24.104Z,58.40
2019-05-05T10:04:55.228Z,57.10
2019-05-05T10:07:24.274Z,57.10
2019-05-05T10:09:54.960Z,57.90
2019-05-05T10:12:22.722Z,57.10
2019-05-05T10:14:57.281Z,57.70
2019-05-05T10:17:25.434Z,58.10
2019-05-05T10:19:54.646Z,57.80
2019-05-05T10:22:23.882Z,56.70
2019-05-05T10:24:57.634Z,57.20
2019-05-05T10:27:25.293Z,55.20
2019-05-05T10:29:54.698Z,55.80
2019-05-05T10:32:24.344Z,56.70
2019-05-05T10:35:04.497Z,56.60
2019-05-05T10:37:31.852Z,56.40
2019-05-05T10:39:59.479Z,54.70
2019-05-05T10:42:46.543Z,56.20
2019-05-05T10:45:14.255Z,56.80
2019-05-05T10:47:43.959Z,55.70
2019-05-05T10:50:11.404Z,55.20
2019-05-05T10:52:38.944Z,54.30
2019-05-05T10:55:06.914Z,55.10
2019-05-05T10:57:34.524Z,54.80
2019-05-05T11:00:10.161Z,54.90
2019-05-05T11:02:31.667Z,54.10
2019-05-05T11:04:59.245Z,55.00
2019-05-05T11:07:26.832Z,55.70
2019-05-05T11:09:54.497Z,56.20
2019-05-05T11:12:44.353Z,56.80
2019-05-05T11:15:37.894Z,58.30
2019-05-05T11:18:26.755Z,57.80
2019-05-05T11:20:58.620Z,57.50
2019-05-05T11:23:38.703Z,57.60
2019-05-05T11:26:10.867Z,58.30
2019-05-05T11:28:34.065Z,57.10
2019-05-05T11:31:01.708Z,58.10
2019-05-05T11:33:48.772Z,58.10
2019-05-05T11:36:29.453Z,57.70
2019-05-05T11:39:00.061Z,57.60
2019-05-05T11:41:28.104Z,57.90
2019-05-05T11:43:55.861Z,58.60
2019-05-05T11:46:24.723Z,56.20
2019-05-05T11:48:54.388Z,58.70
2019-05-05T11:51:24.797Z,58.80
2019-05-05T11:53:53.872Z,57.70
2019-05-05T11:56:21.592Z,58.60
2019-05-05T11:58:49.264Z,59.40
2019-05-05T12:01:16.991Z,59.20
2019-05-05T12:03:44.604Z,56.50
2019-05-05T12:06:14.453Z,58.20
2019-05-05T12:08:45.492Z,58.50
2019-05-05T12:11:12.321Z,58.60
2019-05-05T12:13:39.908Z,59.40
2019-05-05T12:16:08.858Z,59.30
2019-05-05T12:18:36.393Z,58.90
2019-05-05T12:21:05.074Z,59.00
2019-05-05T12:23:33.927Z,60.10
2019-05-05T12:26:30.066Z,59.90
2019-05-05T12:29:18.205Z,60.00
2019-05-05T12:31:50.793Z,59.90
2019-05-05T12:34:18.354Z,60.30
2019-05-05T12:36:47.046Z,60.40
2019-05-05T12:39:14.585Z,60.10
2019-05-05T12:41:42.814Z,60.80
2019-05-05T12:44:14.285Z,60.00
2019-05-05T12:47:01.188Z,60.30
2019-05-05T12:49:28.779Z,61.10
2019-05-05T12:51:56.289Z,60.80
2019-05-05T12:54:24.657Z,60.60
2019-05-05T12:56:53.910Z,61.70
2019-05-05T12:59:24.986Z,60.90
2019-05-05T13:01:54.547Z,60.70
2019-05-05T13:04:21.972Z,61.10
2019-05-05T13:06:50.372Z,60.40
2019-05-05T13:09:19.220Z,60.90
2019-05-05T13:11:49.017Z,60.50
2019-05-05T13:14:17.295Z,60.60
2019-05-05T13:16:52.804Z,60.60
2019-05-05T13:19:24.241Z,59.30
2019-05-05T13:22:09.909Z,59.80
2019-05-05T13:24:57.933Z,60.10
2019-05-05T13:27:29.060Z,58.80
2019-05-05T13:29:57.535Z,59.20
2019-05-05T13:32:26.201Z,59.30
2019-05-05T13:34:54.754Z,59.50
2019-05-05T13:37:24.320Z,59.00
2019-05-05T13:39:53.917Z,59.60
2019-05-05T13:42:21.512Z,59.50
2019-05-05T13:45:03.951Z,59.60
2019-05-05T13:47:31.527Z,59.60
2019-05-05T13:50:07.022Z,60.20
2019-05-05T13:52:34.619Z,59.70
2019-05-05T13:55:02.242Z,59.80
2019-05-05T13:57:29.822Z,59.20
2019-05-05T13:59:57.432Z,59.80
2019-05-05T14:02:25.043Z,59.40
2019-05-05T14:04:54.184Z,59.60
2019-05-05T14:07:23.779Z,59.90
2019-05-05T14:09:51.316Z,60.50
2019-05-05T14:12:20.091Z,60.70
2019-05-05T14:14:47.967Z,60.00
2019-05-05T14:17:15.876Z,60.20
2019-05-05T14:19:44.563Z,60.10
2019-05-05T14:22:12.216Z,59.90
2019-05-05T14:24:46.422Z,60.00
2019-05-05T14:27:14.462Z,60.80
2019-05-05T14:29:56.530Z,59.70
2019-05-05T14:32:27.437Z,61.30
2019-05-05T14:35:04.642Z,61.70
2019-05-05T14:37:38.544Z,62.40
2019-05-05T14:40:06.338Z,61.70
2019-05-05T14:42:34.298Z,61.40
2019-05-05T14:45:01.965Z,63.20
2019-05-05T14:47:29.582Z,62.80
2019-05-05T14:49:57.321Z,63.20
2019-05-05T14:52:25.005Z,63.80
2019-05-05T14:54:54.447Z,64.40
2019-05-05T14:57:27.721Z,63.70
2019-05-05T14:59:56.248Z,63.10
2019-05-05T15:02:24.530Z,64.10
2019-05-05T15:04:54.740Z,62.80
2019-05-05T15:07:29.251Z,64.20
2019-05-05T15:10:14.441Z,64.20
2019-05-05T15:12:46.205Z,66.30
2019-05-05T15:15:14.489Z,66.50
2019-05-05T15:17:43.429Z,66.80
2019-05-05T15:20:11.329Z,65.50
2019-05-05T15:22:38.917Z,66.30
2019-05-05T15:25:06.615Z,67.30
2019-05-05T15:27:34.868Z,67.90
2019-05-05T15:30:04.403Z,68.10
2019-05-05T15:32:33.924Z,65.20
2019-05-05T15:35:03.863Z,64.10
2019-05-05T15:37:31.205Z,65.00
2019-05-05T15:39:58.877Z,65.60
2019-05-05T15:42:26.605Z,64.90
2019-05-05T15:44:54.475Z,65.00
2019-05-05T15:47:23.643Z,63.40
2019-05-05T15:49:53.318Z,63.90
2019-05-05T15:52:24.365Z,61.90
2019-05-05T15:54:54.862Z,60.10
2019-05-05T15:57:26.077Z,59.90
2019-05-05T15:59:54.375Z,60.60
2019-05-05T16:02:24.003Z,64.40
2019-05-05T16:04:53.941Z,65.50
2019-05-05T16:09:49.487Z,63.30
2019-05-05T16:12:17.207Z,64.30
2019-05-05T16:14:53.800Z,63.70
2019-05-05T16:19:59.678Z,65.00
2019-05-05T16:22:56.951Z,66.50
2019-05-05T16:25:24.749Z,66.80
2019-05-05T16:27:52.699Z,66.40
2019-05-05T16:30:20.679Z,66.90
2019-05-05T16:32:48.492Z,68.10
2019-05-05T16:35:16.319Z,68.40
2019-05-05T16:37:44.328Z,68.80
2019-05-05T16:40:14.649Z,69.10
2019-05-05T16:42:43.727Z,68.50
2019-05-05T16:45:14.075Z,68.10
2019-05-05T16:47:44.308Z,69.70
2019-05-05T16:50:13.646Z,69.80
2019-05-05T16:52:47.206Z,70.30
2019-05-05T16:55:34.444Z,68.40
2019-05-05T16:58:04.056Z,69.70
2019-05-05T17:00:34.491Z,69.90
2019-05-05T17:03:04.078Z,68.90
2019-05-05T17:05:31.701Z,70.40
2019-05-05T17:07:59.859Z,68.90
2019-05-05T17:10:28.128Z,70.10
2019-05-05T17:12:57.238Z,71.00
2019-05-05T17:15:44.264Z,69.50
2019-05-05T17:18:46.502Z,69.50
2019-05-05T17:21:20.307Z,69.50
2019-05-05T17:23:50.352Z,70.40
2019-05-05T17:26:18.541Z,70.60
2019-05-05T17:28:46.385Z,70.40
2019-05-05T17:31:14.186Z,70.40
2019-05-05T17:37:34.811Z,70.60
2019-05-05T17:40:29.756Z,70.50
2019-05-05T17:43:24.989Z,69.80
2019-05-05T17:45:58.061Z,69.60
2019-05-05T17:48:33.603Z,69.90
2019-05-05T17:51:08.249Z,69.70
2019-05-05T17:53:48.801Z,70.70
2019-05-05T17:56:16.377Z,71.10
2019-05-05T17:58:44.491Z,69.70
2019-05-05T18:01:12.061Z,70.00
2019-05-05T18:03:39.654Z,70.20
2019-05-05T18:06:20.621Z,69.10
2019-05-05T18:08:54.387Z,70.20
2019-05-05T18:11:37.767Z,69.90
2019-05-05T18:14:10.590Z,69.90
2019-05-05T18:16:38.338Z,70.50
2019-05-05T18:19:05.823Z,69.60
2019-05-05T18:21:34.769Z,69.20
2019-05-05T18:24:02.578Z,69.00
2019-05-05T18:26:30.583Z,68.40
2019-05-05T18:28:58.157Z,69.20
2019-05-05T18:31:25.854Z,68.60
2019-05-05T18:33:54.323Z,69.30
2019-05-05T18:36:22.190Z,69.80
2019-05-05T18:38:51.152Z,69.80
2019-05-05T18:41:25.921Z,69.90
2019-05-05T18:44:03.815Z,68.90
2019-05-05T18:46:31.547Z,69.50
2019-05-05T18:48:59.081Z,69.10
2019-05-05T18:51:26.935Z,68.80
2019-05-05T18:53:55.159Z,69.00
2019-05-05T18:56:23.687Z,68.80
2019-05-05T18:58:51.275Z,68.70
2019-05-05T19:01:44.595Z,68.50
2019-05-05T19:04:26.875Z,68.20
2019-05-05T19:07:14.442Z,67.70
2019-05-05T19:09:51.854Z,67.90
2019-05-05T19:12:11.922Z,65.80
2019-05-05T19:14:39.548Z,63.90
2019-05-05T19:17:07.167Z,62.90
2019-05-05T19:19:35.879Z,61.80
2019-05-05T19:22:08.076Z,62.70
2019-05-05T19:24:36.027Z,63.60
2019-05-05T19:27:03.877Z,64.80
2019-05-05T19:29:32.219Z,64.20
2019-05-05T19:32:00.044Z,65.40
2019-05-05T19:34:27.590Z,65.60
2019-05-05T19:36:55.437Z,63.10
2019-05-05T19:39:24.283Z,60.30
2019-05-05T19:41:54.404Z,61.20
2019-05-05T19:44:21.361Z,59.70
2019-05-05T19:47:05.643Z,61.40
2019-05-05T19:49:33.789Z,62.40
2019-05-05T19:52:05.695Z,63.20
2019-05-05T19:54:31.105Z,62.50
2019-05-05T19:57:00.505Z,63.10
2019-05-05T19:59:28.588Z,62.60
2019-05-05T20:01:56.229Z,64.40
2019-05-05T20:04:24.173Z,62.60
2019-05-05T20:06:52.214Z,62.10
2019-05-05T20:09:25.107Z,61.60
2019-05-05T20:11:56.122Z,64.10
2019-05-05T20:14:24.813Z,63.40
2019-05-05T20:17:23.565Z,62.90
2019-05-05T20:19:51.452Z,60.60
2019-05-05T20:22:19.347Z,59.40
2019-05-05T20:25:13.899Z,58.60
2019-05-05T20:27:41.486Z,58.20
2019-05-05T20:30:09.347Z,58.20
2019-05-05T20:32:43.811Z,59.40
2019-05-05T20:35:44.761Z,58.10
2019-05-05T20:41:27.685Z,57.60
2019-05-05T20:43:55.720Z,58.60
2019-05-05T20:46:23.845Z,59.00
2019-05-05T20:48:51.710Z,59.90
2019-05-05T20:51:28.895Z,60.50
2019-05-05T20:53:56.918Z,59.30
2019-05-05T20:56:24.873Z,57.60
2019-05-05T20:58:54.731Z,58.70
2019-05-05T21:01:24.503Z,59.90
2019-05-05T21:03:53.554Z,62.00
2019-05-05T21:06:21.383Z,60.00
2019-05-05T21:09:01.209Z,63.90
2019-05-05T21:11:28.912Z,60.80
2019-05-05T21:14:31.165Z,60.00
2019-05-05T21:16:48.292Z,61.10
2019-05-05T21:19:16.064Z,58.60
2019-05-05T21:21:46.792Z,60.50
2019-05-05T21:24:14.948Z,64.10
2019-05-05T21:30:48.380Z,62.50
2019-05-05T21:33:16.677Z,62.70
2019-05-05T21:39:21.700Z,57.30
2019-05-05T21:41:56.798Z,57.30
2019-05-05T21:44:34.241Z,57.80
2019-05-05T21:47:02.157Z,57.40
2019-05-05T21:49:30.206Z,58.10
2019-05-05T21:52:14.389Z,60.20
2019-05-05T21:55:00.456Z,56.80
2019-05-05T21:57:38.287Z,57.30
2019-05-05T22:00:09.909Z,59.10
2019-05-05T22:02:37.613Z,58.20
2019-05-05T22:05:05.748Z,58.50
2019-05-05T22:07:35.499Z,59.10
2019-05-05T22:10:04.462Z,58.10
2019-05-05T22:12:33.373Z,59.70
2019-05-05T22:15:04.138Z,64.70
2019-05-05T22:17:33.611Z,60.70
2019-05-05T22:20:08.262Z,62.40
2019-05-05T22:22:37.932Z,62.10
